Decoded Metar for SCVM ( in ) (IATA:) | Meteo·Mobile Aviation Weather
aviador You're here:

SCVM Decoded Metar

in
Report Time2018-10-23 11:00:00
UTC Time2018-10-23 11:32:32
Flight Rules lifr LIFR
WindCalm
Visibility1000 m
Phenomena:Mist
Clouds:N/A
Expected CloudBase > 400 ft AGL from Temp-Dew spread
CeilingNone
Temp09°C
Dew Point08°C (94% RH)
AAT8.6°C
QNH1016 hPa
Raw Report
METAR SCVM 231100Z 00000KT 6000 1000S BR NSC 09/08 Q1016=

Extra information for SCVM:More info

Social comments